createdAt,value
2022-09-14T00:01:44.248Z,5.97
2022-09-14T00:04:16.497Z,6.17
2022-09-14T00:06:45.652Z,6.07
2022-09-14T00:09:20.195Z,9.23
2022-09-14T00:11:50.659Z,6.87
2022-09-14T00:14:20.445Z,6.57
2022-09-14T00:16:49.114Z,6.13
2022-09-14T00:19:21.586Z,5.57
2022-09-14T00:21:53.529Z,5.80
2022-09-14T00:24:22.668Z,6.70
2022-09-14T00:26:52.758Z,6.13
2022-09-14T00:29:21.217Z,6.07
2022-09-14T00:31:49.647Z,6.20
2022-09-14T00:34:19.141Z,6.90
2022-09-14T00:36:50.507Z,6.37
2022-09-14T00:39:21.475Z,8.00
2022-09-14T00:41:53.035Z,7.03
2022-09-14T00:44:59.995Z,7.73
2022-09-14T00:47:29.918Z,6.93
2022-09-14T00:49:59.003Z,6.80
2022-09-14T00:52:30.198Z,8.50
2022-09-14T00:55:02.658Z,7.37
2022-09-14T00:57:38.639Z,8.47
2022-09-14T01:00:11.420Z,8.20
2022-09-14T01:02:40.476Z,7.70
2022-09-14T01:05:11.529Z,7.37
2022-09-14T01:08:10.257Z,7.33
2022-09-14T01:11:01.827Z,7.80
2022-09-14T01:13:43.283Z,8.57
2022-09-14T01:16:24.090Z,7.73
2022-09-14T01:18:58.166Z,7.43
2022-09-14T01:21:30.239Z,7.23
2022-09-14T01:24:07.674Z,8.03
2022-09-14T01:27:08.387Z,7.73
2022-09-14T01:29:45.895Z,7.40
2022-09-14T01:32:19.239Z,8.00
2022-09-14T01:34:50.957Z,7.67
2022-09-14T01:37:24.090Z,7.87
2022-09-14T01:39:58.254Z,8.63
2022-09-14T01:42:28.843Z,11.70
2022-09-14T01:45:01.570Z,7.80
2022-09-14T01:47:35.579Z,11.53
2022-09-14T01:50:10.918Z,9.43
2022-09-14T01:52:45.779Z,7.30
2022-09-14T01:55:20.351Z,7.10
2022-09-14T01:57:54.256Z,7.57
2022-09-14T02:00:24.409Z,7.60
2022-09-14T02:02:58.746Z,7.57
2022-09-14T02:05:33.703Z,8.00
2022-09-14T02:08:02.302Z,7.70
2022-09-14T02:10:30.807Z,6.77
2022-09-14T02:12:59.374Z,7.77
2022-09-14T02:15:29.267Z,6.83
2022-09-14T02:17:57.678Z,7.50
2022-09-14T02:20:35.264Z,7.23
2022-09-14T02:23:04.134Z,7.60
2022-09-14T02:25:33.327Z,11.03
2022-09-14T02:28:02.111Z,8.70
2022-09-14T02:30:44.516Z,7.63
2022-09-14T02:33:20.328Z,6.47
2022-09-14T02:35:52.954Z,6.83
2022-09-14T02:38:29.938Z,6.33
2022-09-14T02:41:04.419Z,5.63
2022-09-14T02:43:41.153Z,6.13
2022-09-14T02:46:18.582Z,7.70
2022-09-14T02:48:55.478Z,6.30
2022-09-14T02:51:32.117Z,7.87
2022-09-14T02:54:05.797Z,6.30
2022-09-14T02:56:35.430Z,6.83
2022-09-14T02:59:03.701Z,7.27
2022-09-14T03:01:33.369Z,6.10
2022-09-14T03:04:01.803Z,6.57
2022-09-14T03:06:30.073Z,5.97
2022-09-14T03:08:58.586Z,6.00
2022-09-14T03:11:26.934Z,5.73
2022-09-14T03:13:55.189Z,5.90
2022-09-14T03:16:23.665Z,5.73
2022-09-14T03:18:53.414Z,5.97
2022-09-14T03:21:21.670Z,5.80
2022-09-14T03:23:55.120Z,6.00
2022-09-14T03:26:25.686Z,6.90
2022-09-14T03:28:56.280Z,6.40
2022-09-14T03:31:25.302Z,6.17
2022-09-14T03:33:56.834Z,6.30
2022-09-14T03:36:27.618Z,6.50
2022-09-14T03:38:58.806Z,6.93
2022-09-14T03:41:27.504Z,6.77
2022-09-14T03:43:55.755Z,6.23
2022-09-14T03:46:26.410Z,6.07
2022-09-14T03:48:57.556Z,6.00
2022-09-14T03:51:25.804Z,8.57
2022-09-14T03:53:54.469Z,6.67
2022-09-14T03:56:23.957Z,6.33
2022-09-14T03:58:52.767Z,6.63
2022-09-14T04:01:23.919Z,6.03
2022-09-14T04:03:52.569Z,6.13
2022-09-14T04:06:22.276Z,6.00
2022-09-14T04:08:50.547Z,7.47
2022-09-14T04:11:21.704Z,6.90
2022-09-14T04:13:51.198Z,8.70
2022-09-14T04:16:21.851Z,6.70
2022-09-14T04:18:50.525Z,6.60
2022-09-14T04:21:22.809Z,8.83
2022-09-14T04:26:42.739Z,7.27
2022-09-14T04:29:12.669Z,8.47
2022-09-14T04:31:41.339Z,9.10
2022-09-14T04:34:13.305Z,7.60
2022-09-14T04:36:43.364Z,7.97
2022-09-14T04:39:14.009Z,9.53
2022-09-14T04:41:42.496Z,8.80
2022-09-14T04:44:11.015Z,10.07
2022-09-14T04:46:43.523Z,9.50
2022-09-14T04:49:14.803Z,9.07
2022-09-14T04:51:44.400Z,8.47
2022-09-14T04:54:17.597Z,8.90
2022-09-14T04:56:46.250Z,9.40
2022-09-14T04:59:15.315Z,10.03
2022-09-14T05:01:47.557Z,9.40
2022-09-14T05:04:16.392Z,8.83
2022-09-14T05:06:46.055Z,9.20
2022-09-14T05:09:16.910Z,8.77
2022-09-14T05:11:46.081Z,9.53
2022-09-14T05:14:15.751Z,10.97
2022-09-14T05:16:45.947Z,8.93
2022-09-14T05:19:17.509Z,9.60
2022-09-14T05:21:48.779Z,9.90
2022-09-14T05:24:19.303Z,8.97
2022-09-14T05:26:48.336Z,9.63
2022-09-14T05:29:19.132Z,8.77
2022-09-14T05:31:48.083Z,10.10
2022-09-14T05:34:16.549Z,9.40
2022-09-14T05:36:46.242Z,8.63
2022-09-14T05:39:14.683Z,8.23
2022-09-14T05:41:42.945Z,8.30
2022-09-14T05:44:11.255Z,8.63
2022-09-14T05:46:39.585Z,9.43
2022-09-14T05:49:08.132Z,9.20
2022-09-14T05:51:36.458Z,8.93
2022-09-14T05:54:11.477Z,8.87
2022-09-14T05:56:39.779Z,8.47
2022-09-14T05:59:08.330Z,10.10
2022-09-14T06:01:36.554Z,9.33
2022-09-14T06:04:05.479Z,9.37
2022-09-14T06:06:35.758Z,8.53
2022-09-14T06:09:05.802Z,8.13
2022-09-14T06:11:37.329Z,9.07
2022-09-14T06:14:07.490Z,8.77
2022-09-14T06:16:36.450Z,8.83
2022-09-14T06:19:04.821Z,9.20
2022-09-14T06:21:35.551Z,8.90
2022-09-14T06:24:05.678Z,8.90
2022-09-14T06:26:34.176Z,9.00
2022-09-14T06:29:02.476Z,10.03
2022-09-14T06:31:30.813Z,8.93
2022-09-14T06:33:59.475Z,9.00
2022-09-14T06:36:29.246Z,8.87
2022-09-14T06:38:58.018Z,8.43
2022-09-14T06:41:30.550Z,8.30
2022-09-14T06:44:01.680Z,8.77
2022-09-14T06:46:32.792Z,9.50
2022-09-14T06:49:04.463Z,9.13
2022-09-14T06:51:35.157Z,9.07
2022-09-14T06:54:03.877Z,8.47
2022-09-14T06:56:37.749Z,8.47
2022-09-14T06:59:07.447Z,10.93
2022-09-14T07:01:36.305Z,9.70
2022-09-14T07:04:06.256Z,9.27
2022-09-14T07:06:42.155Z,9.00
2022-09-14T07:09:10.951Z,9.37
2022-09-14T07:11:41.099Z,10.03
2022-09-14T07:14:10.294Z,9.10
2022-09-14T07:16:40.720Z,8.97
2022-09-14T07:19:13.942Z,9.37
2022-09-14T07:21:43.317Z,8.63
2022-09-14T07:24:14.887Z,9.60
2022-09-14T07:26:45.335Z,9.80
2022-09-14T07:29:16.468Z,10.37
2022-09-14T07:31:49.350Z,11.07
2022-09-14T07:34:18.246Z,10.20
2022-09-14T07:36:46.950Z,10.53
2022-09-14T07:39:17.071Z,9.57
2022-09-14T07:41:47.291Z,10.07
2022-09-14T07:44:18.491Z,10.23
2022-09-14T07:46:47.628Z,10.47
2022-09-14T07:49:17.156Z,10.10
2022-09-14T07:51:46.052Z,9.73
2022-09-14T07:54:16.872Z,10.10
2022-09-14T07:56:46.729Z,10.33
2022-09-14T07:59:36.016Z,10.97
2022-09-14T08:02:07.091Z,10.87
2022-09-14T08:04:36.694Z,9.80
2022-09-14T08:07:05.083Z,11.17
2022-09-14T08:09:33.315Z,9.67
2022-09-14T08:12:05.812Z,9.43
2022-09-14T08:14:34.350Z,7.13
2022-09-14T08:17:02.692Z,8.00
2022-09-14T08:19:30.952Z,9.33
2022-09-14T08:21:59.247Z,10.90
2022-09-14T08:24:27.522Z,10.47
2022-09-14T08:26:55.907Z,9.60
2022-09-14T08:29:25.932Z,13.07
2022-09-14T08:31:54.338Z,8.63
2022-09-14T08:34:22.591Z,9.50
2022-09-14T08:36:51.035Z,8.67
2022-09-14T08:39:19.915Z,7.73
2022-09-14T08:41:56.020Z,8.83
2022-09-14T08:44:31.512Z,9.00
2022-09-14T08:47:05.608Z,8.53
2022-09-14T08:49:51.893Z,8.43
2022-09-14T08:52:30.099Z,8.17
2022-09-14T08:55:02.139Z,8.60
2022-09-14T08:57:40.541Z,7.80
2022-09-14T09:00:15.423Z,8.07
2022-09-14T09:03:25.606Z,7.20
2022-09-14T09:06:00.124Z,7.27
2022-09-14T09:08:38.895Z,6.03
2022-09-14T09:11:15.955Z,7.40
2022-09-14T09:13:45.516Z,4.40
2022-09-14T09:16:23.100Z,5.53
2022-09-14T09:18:55.265Z,4.00
2022-09-14T09:21:28.365Z,2.70
2022-09-14T09:24:00.270Z,3.03
2022-09-14T09:26:31.419Z,3.13
2022-09-14T09:29:03.172Z,5.77
2022-09-14T09:31:36.413Z,5.27
2022-09-14T09:34:04.856Z,3.27
2022-09-14T09:36:37.403Z,4.83
2022-09-14T09:39:07.009Z,3.50
2022-09-14T09:41:45.681Z,4.57
2022-09-14T09:44:14.123Z,2.97
2022-09-14T09:46:49.881Z,3.77
2022-09-14T09:49:23.458Z,2.50
2022-09-14T09:51:53.414Z,3.30
2022-09-14T09:54:29.914Z,3.30
2022-09-14T09:57:00.667Z,2.77
2022-09-14T09:59:35.318Z,5.47
2022-09-14T10:02:29.612Z,3.40
2022-09-14T10:05:01.977Z,2.53
2022-09-14T10:07:32.931Z,4.07
2022-09-14T10:10:05.711Z,2.33
2022-09-14T10:12:34.630Z,2.87
2022-09-14T10:15:17.139Z,2.63
2022-09-14T10:18:08.938Z,4.75
2022-09-14T10:20:40.344Z,2.70
2022-09-14T10:23:27.486Z,4.60
2022-09-14T10:26:21.659Z,2.15
2022-09-14T10:28:51.826Z,2.28
2022-09-14T10:31:28.533Z,3.63
2022-09-14T10:33:59.285Z,4.40
2022-09-14T10:36:31.399Z,6.85
2022-09-14T10:39:07.954Z,3.55
2022-09-14T10:41:45.529Z,2.85
2022-09-14T10:44:45.078Z,3.90
2022-09-14T10:47:46.210Z,4.00
2022-09-14T10:50:30.139Z,3.13
2022-09-14T10:53:13.390Z,5.40
2022-09-14T10:55:50.523Z,4.38
2022-09-14T10:58:39.696Z,2.45
2022-09-14T11:01:26.239Z,3.95
2022-09-14T11:04:21.628Z,6.53
2022-09-14T11:07:01.231Z,4.60
2022-09-14T11:09:37.058Z,2.75
2022-09-14T11:12:12.861Z,3.47
2022-09-14T11:15:08.309Z,2.45
2022-09-14T11:17:55.537Z,2.35
2022-09-14T11:20:36.096Z,2.25
2022-09-14T11:23:26.755Z,3.63
2022-09-14T11:26:00.494Z,3.05
2022-09-14T11:28:34.121Z,2.40
2022-09-14T11:31:10.723Z,5.18
2022-09-14T11:33:44.644Z,2.33
2022-09-14T11:36:19.293Z,3.20
2022-09-14T11:38:53.573Z,7.10
2022-09-14T11:41:30.261Z,5.68
2022-09-14T11:44:04.179Z,4.07
2022-09-14T11:46:35.781Z,3.28
2022-09-14T11:49:16.450Z,7.28
2022-09-14T11:51:52.448Z,5.30
2022-09-14T11:54:23.995Z,9.75
2022-09-14T11:56:59.974Z,3.65
2022-09-14T11:59:50.890Z,5.00
2022-09-14T12:02:58.822Z,4.03
2022-09-14T12:05:38.651Z,6.68
2022-09-14T12:08:39.252Z,3.53
2022-09-14T12:11:32.052Z,3.47
2022-09-14T12:14:31.761Z,4.57
2022-09-14T12:17:41.343Z,2.88
2022-09-14T12:20:53.330Z,3.38
2022-09-14T12:23:27.061Z,3.03
2022-09-14T12:26:34.154Z,3.35
2022-09-14T12:29:33.902Z,2.58
2022-09-14T12:32:29.433Z,2.72
2022-09-14T12:35:48.005Z,7.80
2022-09-14T12:38:43.722Z,2.85
2022-09-14T12:42:12.482Z,2.97
2022-09-14T12:44:43.780Z,2.85
2022-09-14T12:47:57.621Z,3.17
2022-09-14T12:50:30.559Z,3.92
2022-09-14T12:53:26.875Z,2.72
2022-09-14T12:56:04.450Z,3.33
2022-09-14T12:58:56.623Z,2.50
2022-09-14T13:01:37.035Z,2.83
2022-09-14T13:04:06.388Z,4.65
2022-09-14T13:06:46.060Z,3.78
2022-09-14T13:09:21.707Z,3.88
2022-09-14T13:18:00.108Z,5.90
2022-09-14T13:20:29.263Z,3.13
2022-09-14T13:22:57.546Z,4.22
2022-09-14T13:25:34.372Z,4.05
2022-09-14T13:28:05.557Z,4.45
2022-09-14T13:30:36.017Z,3.20
2022-09-14T13:33:06.581Z,8.45
2022-09-14T13:35:39.766Z,4.22
2022-09-14T13:38:11.485Z,2.85
2022-09-14T13:40:39.721Z,6.15
2022-09-14T13:43:08.184Z,2.78
2022-09-14T13:45:37.078Z,4.05
2022-09-14T13:48:07.612Z,3.35
2022-09-14T13:50:36.218Z,3.38
2022-09-14T13:53:04.762Z,5.68
2022-09-14T13:55:45.244Z,2.92
2022-09-14T13:58:23.826Z,3.70
2022-09-14T14:01:00.600Z,4.63
2022-09-14T14:03:36.702Z,5.97
2022-09-14T14:06:22.050Z,3.80
2022-09-14T14:09:03.481Z,3.25
2022-09-14T14:11:38.253Z,6.15
2022-09-14T14:14:19.406Z,3.63
2022-09-14T14:17:24.631Z,6.47
2022-09-14T14:19:56.531Z,3.78
2022-09-14T14:22:30.075Z,3.28
2022-09-14T14:25:13.307Z,6.05
2022-09-14T14:27:46.185Z,3.10
2022-09-14T14:30:18.798Z,2.40
2022-09-14T14:32:52.063Z,2.47
2022-09-14T14:35:25.314Z,3.67
2022-09-14T14:37:54.607Z,4.30
2022-09-14T14:40:23.360Z,4.68
2022-09-14T14:42:52.830Z,3.97
2022-09-14T14:45:26.500Z,1.90
2022-09-14T14:47:56.778Z,2.47
2022-09-14T14:50:29.723Z,3.70
2022-09-14T14:52:58.598Z,2.90
2022-09-14T14:55:28.309Z,3.80
2022-09-14T14:58:01.627Z,2.55
2022-09-14T15:00:33.849Z,5.50
2022-09-14T15:03:03.008Z,2.83
2022-09-14T15:05:33.517Z,4.97
2022-09-14T15:08:02.030Z,5.50
2022-09-14T15:10:31.279Z,6.88
2022-09-14T15:12:59.581Z,3.80
2022-09-14T15:15:28.353Z,10.25
2022-09-14T15:17:56.731Z,2.25
2022-09-14T15:20:25.058Z,5.28
2022-09-14T15:22:54.738Z,3.90
2022-09-14T15:25:23.659Z,5.70
2022-09-14T15:27:52.071Z,2.22
2022-09-14T15:30:20.562Z,2.60
2022-09-14T15:32:48.881Z,5.73
2022-09-14T15:35:17.343Z,4.67
2022-09-14T15:37:45.671Z,3.00
2022-09-14T15:40:16.013Z,5.30
2022-09-14T15:42:44.459Z,3.97
2022-09-14T15:45:13.705Z,4.40
2022-09-14T15:47:43.650Z,13.93
2022-09-14T15:50:12.957Z,4.47
2022-09-14T15:52:41.591Z,7.23
2022-09-14T15:55:12.238Z,6.10
2022-09-14T15:57:42.457Z,4.60
2022-09-14T16:00:14.195Z,3.50
2022-09-14T16:02:42.968Z,5.40
2022-09-14T16:05:12.852Z,5.90
2022-09-14T16:07:41.245Z,6.53
2022-09-14T16:10:11.037Z,6.10
2022-09-14T16:12:39.317Z,5.50
2022-09-14T16:15:10.758Z,4.97
2022-09-14T16:17:39.086Z,3.17
2022-09-14T16:20:10.078Z,2.13
2022-09-14T16:22:38.477Z,2.00
2022-09-14T16:25:07.380Z,3.53
2022-09-14T16:27:35.654Z,2.80
2022-09-14T16:30:03.897Z,2.47
2022-09-14T16:32:33.578Z,3.20
2022-09-14T16:35:05.846Z,4.23
2022-09-14T16:37:36.179Z,1.80
2022-09-14T16:40:05.245Z,1.90
2022-09-14T16:42:33.603Z,1.17
2022-09-14T16:45:01.776Z,1.03
2022-09-14T16:47:29.973Z,1.83
2022-09-14T16:49:59.527Z,2.23
2022-09-14T16:52:29.720Z,1.50
2022-09-14T16:54:58.096Z,4.03
2022-09-14T16:57:27.123Z,1.57
2022-09-14T16:59:55.501Z,1.70
2022-09-14T17:02:23.822Z,1.47
2022-09-14T17:04:52.844Z,2.67
2022-09-14T17:07:23.789Z,2.03
2022-09-14T17:09:52.012Z,3.67
2022-09-14T17:12:20.233Z,2.07
2022-09-14T17:14:48.479Z,3.50
2022-09-14T17:17:16.687Z,2.70
2022-09-14T17:19:44.917Z,2.63
2022-09-14T17:22:14.124Z,4.27
2022-09-14T17:24:43.697Z,2.03
2022-09-14T17:27:12.035Z,2.83
2022-09-14T17:29:40.831Z,1.43
2022-09-14T17:32:14.032Z,1.40
2022-09-14T17:34:42.963Z,1.73
2022-09-14T17:37:11.245Z,3.10
2022-09-14T17:39:39.426Z,2.67
2022-09-14T17:42:09.378Z,1.57
2022-09-14T17:44:37.589Z,1.90
2022-09-14T17:47:06.318Z,1.57
2022-09-14T17:49:34.579Z,1.67
2022-09-14T17:52:03.432Z,3.37
2022-09-14T17:54:31.671Z,2.23
2022-09-14T17:56:59.909Z,3.30
2022-09-14T17:59:29.708Z,2.60
2022-09-14T18:01:57.961Z,3.63
2022-09-14T18:04:26.242Z,2.57
2022-09-14T18:06:54.494Z,1.90
2022-09-14T18:09:24.836Z,2.90
2022-09-14T18:11:57.111Z,3.07
2022-09-14T18:14:26.141Z,1.83
2022-09-14T18:16:59.917Z,1.63
2022-09-14T18:19:28.575Z,2.60
2022-09-14T18:21:56.914Z,1.67
2022-09-14T18:24:25.281Z,2.60
2022-09-14T18:26:54.048Z,1.97
2022-09-14T18:29:23.585Z,2.23
2022-09-14T18:31:52.917Z,2.90
2022-09-14T18:34:23.654Z,1.40
2022-09-14T18:36:53.000Z,2.30
2022-09-14T18:39:21.249Z,1.63
2022-09-14T18:41:53.700Z,1.63
2022-09-14T18:44:22.298Z,1.83
2022-09-14T18:46:51.803Z,2.50
2022-09-14T18:49:20.646Z,2.00
2022-09-14T18:51:50.266Z,3.43
2022-09-14T18:54:19.156Z,1.70
2022-09-14T18:56:47.400Z,2.83
2022-09-14T18:59:16.609Z,2.33
2022-09-14T19:01:45.307Z,2.00
2022-09-14T19:04:15.544Z,1.30
2022-09-14T19:06:44.616Z,2.80
2022-09-14T19:09:14.389Z,3.80
2022-09-14T19:11:42.730Z,2.33
2022-09-14T19:14:13.824Z,2.87
2022-09-14T19:16:43.182Z,3.03
2022-09-14T19:19:14.774Z,2.07
2022-09-14T19:21:43.374Z,3.00
2022-09-14T19:24:14.816Z,3.87
2022-09-14T19:26:45.780Z,2.70
2022-09-14T19:29:16.046Z,1.83
2022-09-14T19:31:44.539Z,2.63
2022-09-14T19:34:13.548Z,3.27
2022-09-14T19:36:41.783Z,3.10
2022-09-14T19:39:10.416Z,3.23
2022-09-14T19:41:40.299Z,2.90
2022-09-14T19:44:09.203Z,1.87
2022-09-14T19:46:39.618Z,2.53
2022-09-14T19:49:08.722Z,3.47
2022-09-14T19:51:37.090Z,3.53
2022-09-14T19:54:05.628Z,3.03
2022-09-14T19:56:34.186Z,2.63
2022-09-14T19:59:06.221Z,1.77
2022-09-14T20:01:37.584Z,3.43
2022-09-14T20:04:07.565Z,2.43
2022-09-14T20:06:40.459Z,5.80
2022-09-14T20:09:11.281Z,3.07
2022-09-14T20:11:41.590Z,6.77
2022-09-14T20:14:13.414Z,2.97
2022-09-14T20:16:44.016Z,2.00
2022-09-14T20:19:14.666Z,4.33
2022-09-14T20:21:43.980Z,5.60
2022-09-14T20:24:16.762Z,3.10
2022-09-14T20:26:46.987Z,2.07
2022-09-14T20:29:18.709Z,2.67
2022-09-14T20:31:48.132Z,4.97
2022-09-14T20:34:19.654Z,3.17
2022-09-14T20:36:49.080Z,4.80
2022-09-14T20:39:18.115Z,4.57
2022-09-14T20:41:46.427Z,2.60
2022-09-14T20:44:16.951Z,3.43
2022-09-14T20:46:47.066Z,1.70
2022-09-14T20:49:18.131Z,4.83
2022-09-14T20:51:46.821Z,3.90
2022-09-14T20:54:18.734Z,2.03
2022-09-14T20:56:47.626Z,3.63
2022-09-14T20:59:19.087Z,4.03
2022-09-14T21:01:49.461Z,1.50
2022-09-14T21:04:20.993Z,2.07
2022-09-14T21:06:53.381Z,2.57
2022-09-14T21:09:24.271Z,6.03
2022-09-14T21:11:53.123Z,2.80
2022-09-14T21:14:23.298Z,4.60
2022-09-14T21:16:55.396Z,2.57
2022-09-14T21:19:26.918Z,4.80
2022-09-14T21:21:55.805Z,2.00
2022-09-14T21:24:25.225Z,2.97
2022-09-14T21:26:53.438Z,3.27
2022-09-14T21:29:24.724Z,3.63
2022-09-14T21:31:53.582Z,2.20
2022-09-14T21:34:21.819Z,2.50
2022-09-14T21:36:52.778Z,3.33
2022-09-14T21:39:24.313Z,1.87
2022-09-14T21:41:58.434Z,1.63
2022-09-14T21:44:32.007Z,1.60
2022-09-14T21:47:00.804Z,2.10
2022-09-14T21:49:29.523Z,4.97
2022-09-14T21:51:57.787Z,2.80
2022-09-14T21:54:26.230Z,2.77
2022-09-14T21:56:54.837Z,3.80
2022-09-14T21:59:24.257Z,3.70
2022-09-14T22:01:54.430Z,3.77
2022-09-14T22:04:24.790Z,3.47
2022-09-14T22:06:53.910Z,2.93
2022-09-14T22:09:25.776Z,4.90
2022-09-14T22:11:54.845Z,2.37
2022-09-14T22:14:26.377Z,4.57
2022-09-14T22:16:56.269Z,3.27
2022-09-14T22:19:27.618Z,3.43
2022-09-14T22:21:56.570Z,1.30
2022-09-14T22:24:33.485Z,2.07
2022-09-14T22:27:05.058Z,3.57
2022-09-14T22:29:33.277Z,8.43
2022-09-14T22:32:05.552Z,4.20
2022-09-14T22:34:35.158Z,4.53
2022-09-14T22:37:03.532Z,2.37
2022-09-14T22:39:31.745Z,2.93
2022-09-14T22:42:00.067Z,4.03
2022-09-14T22:44:28.390Z,5.90
2022-09-14T22:46:56.732Z,2.90
2022-09-14T22:49:26.326Z,4.37
2022-09-14T22:51:54.517Z,2.17
2022-09-14T22:54:22.910Z,3.60
2022-09-14T22:56:51.202Z,4.67
2022-09-14T22:59:19.396Z,4.47
2022-09-14T23:01:47.670Z,4.70
2022-09-14T23:04:16.010Z,4.47
2022-09-14T23:06:47.444Z,2.33
2022-09-14T23:09:18.803Z,3.50
2022-09-14T23:11:47.520Z,2.67
2022-09-14T23:14:17.506Z,2.37
2022-09-14T23:16:46.234Z,4.93
2022-09-14T23:19:17.998Z,3.63
2022-09-14T23:21:47.744Z,5.67
2022-09-14T23:24:16.511Z,4.23
2022-09-14T23:26:44.824Z,4.20
2022-09-14T23:29:17.006Z,3.80
2022-09-14T23:31:45.414Z,3.07
2022-09-14T23:34:13.680Z,6.40
2022-09-14T23:36:42.134Z,3.13
2022-09-14T23:39:11.860Z,3.63
2022-09-14T23:41:40.732Z,3.63
2022-09-14T23:44:10.558Z,4.40
2022-09-14T23:46:38.817Z,3.70
2022-09-14T23:49:07.141Z,5.67
2022-09-14T23:51:35.881Z,5.40
2022-09-14T23:54:04.765Z,5.17
2022-09-14T23:56:34.305Z,4.73
2022-09-14T23:59:02.652Z,2.43
